Beach City, Texas
Current Conditions -  °F | °C
As of 9:50 AM on Wednesday 28 Jan 2015 (Local Time) from KEFD Reporting Station
Few Clouds Few Clouds  
Wind Chill: 68°   Ceiling: Unl
Heat Index: 68°   Visibility: 10mi
Dew Point: 48°   Wind: 0mph
Humidity: 49%   Direction: NA
Pressure: 30.22"   Gusts: NA
Location:  29.7803°N, 94.894°W
Report Text: KEFD 281550Z 00000KT 10SM FEW250 20/09 A3022
Loading
Personal Weather Stations






























Interactive Weather Map New forecast layout! Learn more

10-Day Weather Forecast

Advertisements
Track Severe Weather on mobile